Time;durP1;ratioP1;P1;durP2;ratioP2;P2;SDS_P1;SDS_P2;PMS_P1;PMS_P2;Temp;Humidity;BMP_temperature;BMP_pressure;BME280_temperature;BME280_humidity;BME280_pressure;Samples;Min_cycle;Max_cycle;Signal;HPM_P1;HPM_P2
2022/06/09 00:02:25;;;;;;;4.63;2.58;;;410.20;2355.20;;;;;;5073474;28;20542;-54
2022/06/09 00:04:50;;;;;;;3.90;1.70;;;410.10;2355.20;;;;;;5073230;28;20459;-54
2022/06/09 00:07:21;;;;;;;3.97;2.00;;;410.00;2355.20;;;;;;5073508;28;20032;-55
2022/06/09 00:09:52;;;;;;;3.53;1.90;;;410.00;2355.20;;;;;;5073535;28;20170;-55
2022/06/09 00:12:18;;;;;;;3.83;1.88;;;410.00;2355.20;;;;;;5073180;28;20035;-55
2022/06/09 00:14:44;;;;;;;5.03;2.05;;;410.00;2355.20;;;;;;5073190;28;20024;-55
2022/06/09 00:17:10;;;;;;;4.35;2.33;;;409.90;2355.20;;;;;;5072804;28;20031;-55
2022/06/09 00:19:35;;;;;;;3.92;2.17;;;409.60;2355.20;;;;;;5073087;28;20039;-55
2022/06/09 00:22:01;;;;;;;5.97;2.08;;;384.90;2329.60;;;;;;5072925;28;20033;-55
2022/06/09 00:24:27;;;;;;;6.22;2.28;;;409.60;2355.20;;;;;;5073472;28;20051;-54
2022/06/09 00:26:53;;;;;;;6.55;2.67;;;384.90;2329.60;;;;;;5072930;28;20494;-54
2022/06/09 00:29:19;;;;;;;4.18;2.13;;;384.90;2329.60;;;;;;5072881;28;20119;-54
2022/06/09 00:31:45;;;;;;;7.15;2.88;;;384.90;2329.60;;;;;;5072888;28;20036;-54
2022/06/09 00:34:10;;;;;;;3.50;1.95;;;384.90;2329.60;;;;;;5072763;28;20025;-54
2022/06/09 00:36:36;;;;;;;3.95;2.20;;;409.60;2355.20;;;;;;5054960;28;20028;-56
2022/06/09 00:39:03;;;;;;;4.00;1.90;;;384.90;2329.60;;;;;;5072725;28;20027;-55
2022/06/09 00:41:29;;;;;;;3.58;2.00;;;384.90;2329.60;;;;;;5072657;28;20383;-56
2022/06/09 00:44:14;;;;;;;4.20;2.22;;;384.90;2329.60;;;;;;5072799;28;20022;-55
2022/06/09 00:46:41;;;;;;;5.00;2.63;;;384.60;2329.60;;;;;;5071025;28;20479;-56
2022/06/09 00:49:18;;;;;;;5.18;2.72;;;384.40;2176.00;;;;;;5072771;28;20424;-55
2022/06/09 00:51:47;;;;;;;5.40;2.78;;;384.50;2201.60;;;;;;5072611;28;20028;-55
2022/06/09 00:54:28;;;;;;;4.00;2.08;;;409.60;1996.80;;;;;;5072757;28;20438;-55
2022/06/09 00:57:05;;;;;;;3.85;2.10;;;384.70;2329.60;;;;;;5072406;28;20495;-55
2022/06/09 00:59:34;;;;;;;4.35;2.03;;;384.70;2329.60;;;;;;5072180;28;20142;-54
2022/06/09 01:02:02;;;;;;;7.32;2.03;;;384.80;2329.60;;;;;;5072421;28;20044;-55
2022/06/09 01:04:30;;;;;;;4.13;2.53;;;384.90;2329.60;;;;;;5072234;28;20024;-55
2022/06/09 01:07:02;;;;;;;3.45;1.83;;;384.90;2329.60;;;;;;5072290;28;20390;-55
2022/06/09 01:09:29;;;;;;;7.27;2.30;;;409.60;2355.20;;;;;;5072224;28;20020;-55
2022/06/09 01:11:56;;;;;;;5.60;1.80;;;409.70;2355.20;;;;;;5072246;28;20020;-55
2022/06/09 01:14:32;;;;;;;3.83;1.58;;;409.70;2355.20;;;;;;5072128;28;20060;-55
2022/06/09 01:17:04;;;;;;;4.25;1.90;;;409.60;2355.20;;;;;;5072075;28;20070;-55
2022/06/09 01:19:36;;;;;;;2.92;1.70;;;409.60;2355.20;;;;;;5072023;28;20020;-54
2022/06/09 01:22:12;;;;;;;3.08;1.92;;;409.70;2355.20;;;;;;5072082;28;20447;-55
2022/06/09 01:25:28;;;;;;;2.85;1.80;;;409.80;2355.20;;;;;;5071449;28;20032;-55
2022/06/09 01:28:13;;;;;;;2.80;1.80;;;409.70;2355.20;;;;;;4971132;28;20039;-55
2022/06/09 01:30:53;;;;;;;2.50;1.90;;;409.60;2355.20;;;;;;4970880;28;20564;-54
2022/06/09 01:33:40;;;;;;;5.10;1.85;;;409.60;2355.20;;;;;;4970771;28;20601;-54
2022/06/09 01:36:35;;;;;;;2.78;1.60;;;409.70;2355.20;;;;;;4971118;28;20042;-55
2022/06/09 01:39:03;;;;;;;3.45;2.13;;;409.80;2355.20;;;;;;4969877;28;20030;-54
2022/06/09 01:41:29;;;;;;;6.15;2.08;;;409.90;2355.20;;;;;;4970666;28;20039;-55
2022/06/09 01:43:56;;;;;;;3.35;1.77;;;409.90;2355.20;;;;;;4970753;28;20027;-54
2022/06/09 01:46:33;;;;;;;4.60;1.67;;;409.90;2355.20;;;;;;4970958;28;20540;-54
2022/06/09 01:49:07;;;;;;;3.67;2.60;;;409.90;2355.20;;;;;;4970575;28;20054;-54
2022/06/09 01:51:36;;;;;;;4.57;2.00;;;409.90;2355.20;;;;;;4970870;28;20027;-54
2022/06/09 01:54:23;;;;;;;3.45;2.20;;;409.90;2355.20;;;;;;4970797;28;20061;-55
2022/06/09 01:57:04;;;;;;;6.88;2.55;;;409.90;2355.20;;;;;;4969962;28;20033;-55
2022/06/09 01:59:36;;;;;;;3.38;2.00;;;409.70;2355.20;;;;;;4970292;28;20142;-54
2022/06/09 02:02:12;;;;;;;3.47;2.10;;;409.80;2355.20;;;;;;5027097;28;20098;-54
2022/06/09 02:04:46;;;;;;;4.50;2.15;;;409.90;2355.20;;;;;;5070975;28;20525;-55
2022/06/09 02:07:13;;;;;;;4.28;2.35;;;409.90;2355.20;;;;;;5070906;28;20040;-55
2022/06/09 02:09:39;;;;;;;3.83;2.03;;;410.00;2355.20;;;;;;5071057;28;20469;-55
2022/06/09 02:12:10;;;;;;;4.85;2.80;;;409.90;2355.20;;;;;;5070940;28;20024;-55
2022/06/09 02:14:37;;;;;;;3.15;1.67;;;410.00;2355.20;;;;;;5070976;28;20060;-54
2022/06/09 02:17:06;;;;;;;5.10;2.10;;;410.00;2355.20;;;;;;5070821;28;20379;-54
2022/06/09 02:19:33;;;;;;;2.85;1.50;;;410.00;2355.20;;;;;;5070813;28;20037;-54
2022/06/09 02:21:59;;;;;;;5.32;2.58;;;410.00;2355.20;;;;;;5070642;28;20032;-54
2022/06/09 02:24:24;;;;;;;6.15;2.22;;;409.90;2355.20;;;;;;5070866;28;20024;-55
2022/06/09 02:26:50;;;;;;;4.90;1.77;;;409.90;2355.20;;;;;;5070351;28;20517;-54
2022/06/09 02:29:16;;;;;;;3.67;2.05;;;409.80;2355.20;;;;;;5070702;28;20166;-53
2022/06/09 02:31:42;;;;;;;3.60;1.88;;;409.80;2355.20;;;;;;5070279;28;20474;-54
2022/06/09 02:34:09;;;;;;;4.35;2.05;;;409.70;2355.20;;;;;;5070781;28;20036;-54
2022/06/09 02:36:35;;;;;;;3.28;1.98;;;409.60;2355.20;;;;;;5070647;28;20035;-55
2022/06/09 02:39:02;;;;;;;3.42;2.00;;;409.70;2355.20;;;;;;5070447;28;20020;-54
2022/06/09 02:41:28;;;;;;;3.10;2.10;;;409.70;2355.20;;;;;;5070579;28;20036;-54
2022/06/09 02:43:54;;;;;;;5.15;2.10;;;409.80;2355.20;;;;;;5070786;28;20382;-53
2022/06/09 02:46:19;;;;;;;4.38;1.98;;;409.80;2355.20;;;;;;5070376;28;20031;-54
2022/06/09 02:48:45;;;;;;;5.60;2.72;;;409.80;2355.20;;;;;;5070385;28;20405;-53
2022/06/09 02:51:32;;;;;;;3.85;1.77;;;409.80;2355.20;;;;;;5070372;28;20036;-54
2022/06/09 02:54:04;;;;;;;7.57;3.22;;;384.90;2329.60;;;;;;5070137;28;20078;-54
2022/06/09 02:56:30;;;;;;;3.40;2.15;;;384.80;2329.60;;;;;;5070246;28;20032;-54
2022/06/09 02:58:56;;;;;;;5.40;3.08;;;384.70;2329.60;;;;;;5070066;28;20097;-54
2022/06/09 03:01:24;;;;;;;4.63;2.00;;;384.60;2329.60;;;;;;5070059;28;20047;-54
2022/06/09 03:03:50;;;;;;;5.90;1.90;;;384.60;2329.60;;;;;;5070136;28;20021;-54
2022/06/09 03:06:16;;;;;;;3.67;2.17;;;384.50;2329.60;;;;;;5070366;28;20032;-53
2022/06/09 03:08:42;;;;;;;3.17;2.00;;;384.50;2329.60;;;;;;5069371;28;20422;-54
2022/06/09 03:11:10;;;;;;;5.25;2.45;;;384.40;2329.60;;;;;;5069874;28;20535;-53
2022/06/09 03:13:37;;;;;;;3.95;1.80;;;384.30;2150.40;;;;;;5069986;28;20463;-54
2022/06/09 03:16:04;;;;;;;3.72;2.10;;;384.30;2329.60;;;;;;5070121;28;20122;-54
2022/06/09 03:18:30;;;;;;;6.38;2.78;;;384.40;1945.60;;;;;;5069793;28;20027;-54
2022/06/09 03:20:56;;;;;;;3.83;2.30;;;384.60;2329.60;;;;;;5069996;28;20037;-53
2022/06/09 03:23:21;;;;;;;3.60;2.00;;;384.00;2329.60;;;;;;5069851;28;20066;-54
2022/06/09 03:25:48;;;;;;;3.88;2.05;;;384.90;2329.60;;;;;;5069664;28;20379;-55
2022/06/09 03:28:14;;;;;;;3.65;2.30;;;409.60;2355.20;;;;;;5069900;28;20364;-54
2022/06/09 03:30:40;;;;;;;2.78;2.08;;;409.80;2355.20;;;;;;5069727;28;20552;-53
2022/06/09 03:33:06;;;;;;;4.88;2.20;;;410.00;2355.20;;;;;;5069905;28;20060;-54
2022/06/09 03:35:32;;;;;;;4.60;2.20;;;410.00;2355.20;;;;;;5070070;28;20379;-54
2022/06/09 03:37:58;;;;;;;5.53;2.40;;;409.90;2355.20;;;;;;5069941;28;20063;-54
2022/06/09 03:40:27;;;;;;;4.22;2.72;;;409.70;2355.20;;;;;;5069799;28;20033;-54
2022/06/09 03:42:53;;;;;;;3.53;2.22;;;409.80;2355.20;;;;;;5069864;28;20029;-55
2022/06/09 03:45:21;;;;;;;3.03;2.20;;;409.90;2355.20;;;;;;5069517;28;20031;-54
2022/06/09 03:47:47;;;;;;;3.03;1.80;;;410.10;2355.20;;;;;;5069696;28;20021;-55
2022/06/09 03:50:19;;;;;;;4.18;2.30;;;410.30;2355.20;;;;;;5069638;28;20078;-54
2022/06/09 03:52:45;;;;;;;8.20;2.63;;;435.20;2355.20;;;;;;5069798;28;20448;-55
2022/06/09 03:55:11;;;;;;;4.28;2.40;;;435.30;2355.20;;;;;;5069706;28;20052;-55
2022/06/09 03:57:36;;;;;;;3.58;2.45;;;435.40;2355.20;;;;;;5069534;28;20036;-54
2022/06/09 04:00:06;;;;;;;3.92;2.00;;;435.80;2355.20;;;;;;5069569;28;20426;-55
2022/06/09 04:02:32;;;;;;;5.63;2.67;;;436.00;2355.20;;;;;;5069749;28;20040;-55
2022/06/09 04:04:59;;;;;;;6.40;2.10;;;460.80;2380.80;;;;;;5069843;28;20134;-54
2022/06/09 04:07:24;;;;;;;3.28;2.00;;;460.80;2380.80;;;;;;5069526;28;20056;-54
2022/06/09 04:09:50;;;;;;;3.03;1.83;;;436.00;2355.20;;;;;;5069423;28;20056;-54
2022/06/09 04:12:16;;;;;;;3.08;1.80;;;436.10;2355.20;;;;;;5069655;28;20032;-54
2022/06/09 04:14:42;;;;;;;5.80;2.38;;;460.90;2380.80;;;;;;5069254;28;20037;-53
2022/06/09 04:17:11;;;;;;;4.60;2.20;;;461.10;2380.80;;;;;;5069520;28;20375;-54
2022/06/09 04:19:37;;;;;;;3.13;1.75;;;461.10;2380.80;;;;;;5069433;28;20113;-54
2022/06/09 04:22:03;;;;;;;4.88;2.50;;;461.10;2380.80;;;;;;5073049;28;20072;-54
2022/06/09 04:24:29;;;;;;;3.30;1.98;;;461.30;2380.80;;;;;;5072897;28;20025;-55
2022/06/09 04:26:54;;;;;;;3.85;1.92;;;461.40;2380.80;;;;;;5073139;28;20039;-54
2022/06/09 04:29:20;;;;;;;3.60;1.92;;;461.70;2380.80;;;;;;5072823;28;20029;-55
2022/06/09 04:31:46;;;;;;;4.95;2.33;;;487.10;2380.80;;;;;;5073160;28;20028;-55
2022/06/09 04:34:11;;;;;;;3.53;2.28;;;563.60;2432.00;;;;;;5072783;28;20021;-54
2022/06/09 04:36:37;;;;;;;6.85;2.53;;;691.30;2022.40;;;;;;5073095;28;20074;-55
2022/06/09 04:39:04;;;;;;;5.57;3.17;;;743.20;1689.60;;;;;;5072873;28;20066;-54
2022/06/09 04:41:30;;;;;;;3.55;2.45;;;794.20;1612.80;;;;;;5072429;28;20032;-55
2022/06/09 04:43:57;;;;;;;6.18;3.10;;;845.30;1459.20;;;;;;5072659;28;20029;-54
2022/06/09 04:46:24;;;;;;;6.70;3.28;;;896.40;1356.80;;;;;;5072661;28;20060;-54
2022/06/09 04:48:51;;;;;;;7.50;2.72;;;896.30;1305.60;;;;;;5071914;28;20475;-55
2022/06/09 04:51:18;;;;;;;5.38;2.70;;;870.70;1382.40;;;;;;5072415;28;20039;-54
2022/06/09 04:53:45;;;;;;;3.38;2.60;;;896.80;1305.60;;;;;;5072755;28;20122;-55
2022/06/09 04:56:11;;;;;;;5.05;3.38;;;845.00;1433.60;;;;;;5072412;28;20029;-55
2022/06/09 04:58:40;;;;;;;3.47;3.17;;;896.80;1254.40;;;;;;5072253;28;20064;-55
2022/06/09 05:01:07;;;;;;;4.20;2.35;;;947.40;1228.80;;;;;;5072266;28;20395;-55
2022/06/09 05:03:34;;;;;;;4.50;2.38;;;921.70;1254.40;;;;;;5072641;28;20017;-55
2022/06/09 05:05:59;;;;;;;2.85;1.95;;;794.20;1484.80;;;;;;5072489;28;20028;-55
2022/06/09 05:08:25;;;;;;;3.05;2.00;;;742.70;1612.80;;;;;;5072391;28;20528;-55
2022/06/09 05:10:51;;;;;;;3.85;2.70;;;692.00;1689.60;;;;;;5071411;28;20028;-56
2022/06/09 05:13:17;;;;;;;4.95;3.38;;;666.40;1817.60;;;;;;5071955;28;20054;-56
2022/06/09 05:15:55;;;;;;;9.77;3.15;;;665.70;1868.80;;;;;;5072082;28;20479;-54
2022/06/09 05:18:23;;;;;;;6.45;2.65;;;640.60;1894.40;;;;;;5071965;28;20028;-55
2022/06/09 05:20:50;;;;;;;7.45;2.83;;;640.40;1920.00;;;;;;5071833;28;20029;-55
2022/06/09 05:23:18;;;;;;;5.95;3.08;;;640.50;1945.60;;;;;;5071967;28;20053;-54
2022/06/09 05:25:48;;;;;;;5.85;3.38;;;666.30;1920.00;;;;;;5071957;28;20031;-54
2022/06/09 05:28:15;;;;;;;5.65;3.83;;;717.10;1715.20;;;;;;5071821;28;20052;-56
2022/06/09 05:30:41;;;;;;;7.30;3.50;;;819.60;1484.80;;;;;;5071779;28;20027;-56
2022/06/09 05:33:07;;;;;;;13.02;4.03;;;743.30;1664.00;;;;;;5071059;28;20043;-56
2022/06/09 05:35:33;;;;;;;6.15;4.10;;;717.50;1715.20;;;;;;5071789;28;20036;-55
2022/06/09 05:46:15;;;;;;;11.98;4.63;;;640.70;1920.00;;;;;;5069992;28;20039;-55
2022/06/09 05:48:42;;;;;;;9.98;4.93;;;640.00;1996.80;;;;;;5070714;28;20028;-55
2022/06/09 05:51:08;;;;;;;9.27;4.90;;;640.40;1971.20;;;;;;5071129;28;20021;-56
2022/06/09 05:53:35;;;;;;;7.38;3.88;;;614.90;2073.60;;;;;;5071625;28;20040;-69
2022/06/09 05:56:02;;;;;;;13.82;5.90;;;614.70;2124.80;;;;;;5071154;28;20029;-54
2022/06/09 05:58:27;;;;;;;9.60;4.53;;;614.90;2176.00;;;;;;5070792;28;20521;-54
2022/06/09 06:00:53;;;;;;;8.57;3.63;;;614.90;2278.40;;;;;;5071458;28;20131;-55
2022/06/09 06:03:19;;;;;;;6.95;3.83;;;615.20;2252.80;;;;;;5070826;28;20047;-68
2022/06/09 06:08:29;;;;;;;6.18;4.10;;;615.30;2278.40;;;;;;5071309;28;20074;-53
2022/06/09 06:10:56;;;;;;;9.45;3.92;;;615.30;2278.40;;;;;;5071016;28;20024;-67
2022/06/09 06:13:22;;;;;;;9.52;3.97;;;640.00;2252.80;;;;;;5070859;28;20062;-67
2022/06/09 06:15:48;;;;;;;10.50;3.83;;;615.30;2304.00;;;;;;5070897;28;20025;-68
2022/06/09 06:18:13;;;;;;;8.40;3.40;;;640.10;2278.40;;;;;;5070919;28;20028;-58
2022/06/09 06:20:39;;;;;;;12.27;3.90;;;640.60;2252.80;;;;;;5070960;28;20043;-55
2022/06/09 06:23:05;;;;;;;4.07;3.10;;;640.80;2252.80;;;;;;5070850;28;20036;-64
2022/06/09 06:25:31;;;;;;;5.45;3.53;;;665.60;2252.80;;;;;;5070636;28;20020;-66
2022/06/09 06:27:57;;;;;;;7.88;3.45;;;640.70;2329.60;;;;;;5070813;28;20043;-69
2022/06/09 06:30:24;;;;;;;7.00;3.28;;;640.70;2355.20;;;;;;5070740;28;20033;-54
2022/06/09 06:32:50;;;;;;;5.43;3.55;;;640.90;2304.00;;;;;;5070386;28;20017;-54
2022/06/09 06:35:16;;;;;;;4.57;2.83;;;640.90;2329.60;;;;;;5052877;28;20607;-55
2022/06/09 06:37:42;;;;;;;4.97;3.22;;;665.60;2304.00;;;;;;5071009;28;20021;-58
2022/06/09 06:40:11;;;;;;;4.78;2.85;;;665.70;2304.00;;;;;;5070237;28;20520;-63
2022/06/09 06:42:37;;;;;;;5.53;2.85;;;665.70;2355.20;;;;;;5070421;28;20123;-58
2022/06/09 06:45:04;;;;;;;4.82;2.45;;;666.50;2227.20;;;;;;5069647;28;20020;-57
2022/06/09 06:47:29;;;;;;;4.93;3.30;;;691.80;2022.40;;;;;;5070184;28;20024;-57
2022/06/09 06:49:55;;;;;;;6.80;2.90;;;717.20;1920.00;;;;;;5070329;28;20028;-57
2022/06/09 06:52:21;;;;;;;5.82;3.92;;;742.80;1894.40;;;;;;5070201;28;20477;-57
2022/06/09 06:54:47;;;;;;;5.82;4.53;;;794.40;1689.60;;;;;;5070222;28;20032;-65
2022/06/09 06:57:13;;;;;;;5.82;4.95;;;947.70;1280.00;;;;;;5070245;28;20024;-62
2022/06/09 06:59:39;;;;;;;5.97;5.57;;;1049.90;1100.80;;;;;;5069920;28;20049;-61
2022/06/09 07:02:05;;;;;;;5.80;5.40;;;1075.50;1024.00;;;;;;5069943;28;20032;-55
2022/06/09 07:04:31;;;;;;;5.97;5.45;;;1126.60;972.80;;;;;;5069979;28;20046;-62
2022/06/09 07:06:57;;;;;;;7.63;6.28;;;1152.40;947.20;;;;;;5069797;28;20123;-64
2022/06/09 07:09:23;;;;;;;7.20;6.70;;;1178.00;921.60;;;;;;5070264;28;20086;-59
2022/06/09 07:11:49;;;;;;;7.32;6.82;;;1177.60;947.20;;;;;;5069795;28;20090;-62
2022/06/09 07:14:14;;;;;;;6.82;6.32;;;1152.50;921.60;;;;;;5070172;28;20112;-63
2022/06/09 07:16:40;;;;;;;7.05;6.32;;;1101.60;972.80;;;;;;5069846;28;20055;-58
2022/06/09 07:19:06;;;;;;;7.82;4.97;;;1152.70;921.60;;;;;;5069992;28;20020;-55
2022/06/09 07:21:32;;;;;;;6.35;3.50;;;1050.30;1024.00;;;;;;5069824;28;20033;-61
2022/06/09 07:23:59;;;;;;;4.57;4.18;;;973.70;1075.20;;;;;;5069808;28;20035;-55
2022/06/09 07:26:25;;;;;;;8.15;5.05;;;922.20;1177.60;;;;;;5070053;28;20107;-59
2022/06/09 07:28:51;;;;;;;7.60;4.25;;;871.30;1203.20;;;;;;5069815;28;20027;-62
2022/06/09 07:31:17;;;;;;;4.28;3.50;;;845.60;1254.40;;;;;;5069643;28;20071;-61
2022/06/09 07:33:44;;;;;;;6.75;3.55;;;844.80;1305.60;;;;;;5069884;28;20044;-61
2022/06/09 07:36:16;;;;;;;4.15;3.13;;;844.90;1305.60;;;;;;5069586;28;20035;-67
2022/06/09 07:38:42;;;;;;;7.00;4.43;;;820.10;1280.00;;;;;;5069896;28;20427;-58
2022/06/09 07:41:09;;;;;;;6.13;5.53;;;871.10;1254.40;;;;;;5069429;28;20041;-67
2022/06/09 07:43:34;;;;;;;10.90;7.28;;;973.20;1075.20;;;;;;5069640;28;20033;-61
2022/06/09 07:46:00;;;;;;;6.30;5.72;;;1075.50;972.80;;;;;;5069566;28;20031;-66
2022/06/09 07:48:26;;;;;;;6.97;6.47;;;1101.50;947.20;;;;;;5069763;28;20030;-67
2022/06/09 07:50:52;;;;;;;6.90;6.40;;;1049.60;1024.00;;;;;;5069541;28;20020;-65
2022/06/09 07:53:19;;;;;;;6.70;6.22;;;1101.70;921.60;;;;;;5069799;28;20028;-65
2022/06/09 07:55:45;;;;;;;8.40;6.25;;;1075.70;998.40;;;;;;5071561;28;20090;-63
2022/06/09 07:58:12;;;;;;;7.10;6.50;;;1049.90;998.40;;;;;;5073226;28;20106;-60
2022/06/09 08:00:39;;;;;;;7.50;6.70;;;973.70;1049.60;;;;;;5073297;28;20033;-61
2022/06/09 08:03:06;;;;;;;8.63;7.90;;;998.80;1049.60;;;;;;5073408;28;20028;-58
2022/06/09 08:05:33;;;;;;;4.22;3.83;;;999.20;1049.60;;;;;;5073490;28;20108;-60
2022/06/09 08:07:59;;;;;;;6.55;4.18;;;998.40;1075.20;;;;;;5073414;28;20724;-64
2022/06/09 08:10:26;;;;;;;4.78;4.28;;;922.50;1126.40;;;;;;5073674;28;20425;-63
2022/06/09 08:12:57;;;;;;;5.57;3.80;;;870.50;1228.80;;;;;;5073708;28;20136;-64
2022/06/09 08:15:24;;;;;;;7.65;3.70;;;819.60;1305.60;;;;;;5055319;28;20144;-54
2022/06/09 08:17:54;;;;;;;4.53;3.47;;;794.20;1331.20;;;;;;5073261;28;20035;-70
2022/06/09 08:20:21;;;;;;;5.80;2.83;;;743.30;1356.80;;;;;;5072801;28;20491;-62
2022/06/09 08:22:47;;;;;;;4.93;2.58;;;743.00;1433.60;;;;;;5073173;28;20118;-64
2022/06/09 08:25:16;;;;;;;4.20;3.03;;;768.50;1331.20;;;;;;5073055;28;20441;-56
2022/06/09 08:27:42;;;;;;;4.15;3.03;;;768.70;1382.40;;;;;;5072688;28;20033;-62
2022/06/09 08:30:10;;;;;;;4.97;2.80;;;793.60;1356.80;;;;;;5072887;28;20031;-55
2022/06/09 08:32:37;;;;;;;3.38;2.63;;;768.90;1331.20;;;;;;5072985;28;20186;-60
2022/06/09 08:35:03;;;;;;;5.28;3.10;;;743.10;1382.40;;;;;;5073065;28;20081;-63
2022/06/09 08:37:29;;;;;;;3.03;2.70;;;768.10;1382.40;;;;;;5072809;28;20028;-62
2022/06/09 08:39:54;;;;;;;4.32;2.75;;;743.30;1433.60;;;;;;5073083;28;20028;-61
2022/06/09 08:42:29;;;;;;;3.50;2.75;;;743.10;1433.60;;;;;;5072645;28;20037;-60
2022/06/09 08:45:02;;;;;;;5.30;2.80;;;743.00;1484.80;;;;;;5072799;28;20024;-63
2022/06/09 08:47:30;;;;;;;;;;;743.30;1459.20;;;;;;5072943;28;20112;-66
2022/06/09 08:50:05;;;;;;;4.32;3.00;;;743.30;1459.20;;;;;;5072645;28;19908;-62
2022/06/09 08:52:52;;;;;;;5.22;3.72;;;742.40;1484.80;;;;;;5072740;28;20017;-57
2022/06/09 08:55:35;;;;;;;3.95;3.28;;;742.50;1536.00;;;;;;5072274;28;20031;-63
2022/06/09 08:58:31;;;;;;;6.10;3.58;;;717.40;1561.60;;;;;;5072227;28;20036;-59
2022/06/09 09:01:05;;;;;;;3.97;3.25;;;717.30;1587.20;;;;;;5072507;28;20068;-62
2022/06/09 09:03:36;;;;;;;4.90;3.17;;;717.20;1587.20;;;;;;5072469;28;20029;-66
2022/06/09 09:06:18;;;;;;;4.43;3.42;;;717.50;1561.60;;;;;;5072216;28;20091;-68
2022/06/09 09:08:44;;;;;;;3.90;2.90;;;717.50;1587.20;;;;;;5071778;28;20345;-63
2022/06/09 09:11:54;;;;;;;8.98;3.83;;;691.90;1664.00;;;;;;5072333;28;20159;-61
2022/06/09 09:14:28;;;;;;;4.13;2.65;;;717.40;1612.80;;;;;;5050172;28;20054;-56
2022/06/09 09:17:12;;;;;;;4.97;3.13;;;717.70;1638.40;;;;;;5072223;28;20032;-63
2022/06/09 09:19:52;;;;;;;3.83;2.50;;;742.90;1638.40;;;;;;5071923;28;20032;-65
2022/06/09 09:22:32;;;;;;;5.05;3.15;;;717.10;1587.20;;;;;;5071868;28;20036;-63
2022/06/09 09:25:15;;;;;;;7.10;2.90;;;742.60;1587.20;;;;;;5071730;28;20029;-64
2022/06/09 09:27:44;;;;;;;5.95;2.90;;;742.90;1587.20;;;;;;5071665;28;20070;-63
2022/06/09 09:30:30;;;;;;;3.50;3.08;;;743.10;1561.60;;;;;;5071952;28;20070;-62
2022/06/09 09:32:57;;;;;;;5.15;3.20;;;743.00;1587.20;;;;;;5071836;28;20016;-67
2022/06/09 09:35:24;;;;;;;3.42;2.53;;;742.40;1612.80;;;;;;5071864;28;20813;-63
2022/06/09 09:37:53;;;;;;;5.10;3.10;;;742.80;1587.20;;;;;;5071670;28;20052;-56
2022/06/09 09:40:33;;;;;;;3.70;2.90;;;742.60;1561.60;;;;;;5071402;28;20512;-66
2022/06/09 09:43:09;;;;;;;3.63;2.83;;;742.80;1612.80;;;;;;5071774;28;20078;-67
2022/06/09 09:45:37;;;;;;;5.00;3.28;;;743.00;1587.20;;;;;;5071948;28;20021;-66
2022/06/09 09:48:23;;;;;;;4.38;3.15;;;742.70;1612.80;;;;;;5071934;28;20029;-58
2022/06/09 09:50:52;;;;;;;5.28;3.00;;;743.30;1587.20;;;;;;5070920;28;20112;-63
2022/06/09 09:53:18;;;;;;;3.83;2.80;;;768.00;1510.40;;;;;;5071412;28;20024;-56
2022/06/09 09:56:00;;;;;;;4.88;3.22;;;742.70;1484.80;;;;;;5071545;28;20025;-60
2022/06/09 09:58:28;;;;;;;4.28;3.15;;;743.00;1536.00;;;;;;5071202;28;20418;-55
2022/06/09 10:01:01;;;;;;;4.72;2.65;;;743.30;1510.40;;;;;;5071286;28;20081;-56
2022/06/09 10:09:21;;;;;;;5.17;3.30;;;768.40;1459.20;;;;;;5071258;28;20032;-55
2022/06/09 10:11:53;;;;;;;3.95;3.25;;;768.30;1484.80;;;;;;5071109;28;20336;-54
2022/06/09 10:14:39;;;;;;;4.88;3.03;;;743.00;1510.40;;;;;;5071018;28;20025;-59
2022/06/09 10:17:22;;;;;;;4.47;2.70;;;743.10;1510.40;;;;;;5071029;28;20046;-64
2022/06/09 10:19:57;;;;;;;;;;;768.00;1459.20;;;;;;5071020;28;20012;-58
2022/06/09 10:22:26;;;;;;;4.45;2.72;;;768.40;1459.20;;;;;;5070772;28;19912;-57
2022/06/09 10:24:59;;;;;;;3.53;2.90;;;768.50;1484.80;;;;;;5070709;28;20021;-62
2022/06/09 10:27:32;;;;;;;3.65;2.92;;;768.10;1459.20;;;;;;5070789;28;20024;-68
2022/06/09 10:30:12;;;;;;;4.53;3.00;;;768.10;1510.40;;;;;;5070512;28;20075;-62
2022/06/09 10:32:41;;;;;;;4.25;2.90;;;742.70;1536.00;;;;;;5070270;28;20028;-65
2022/06/09 10:35:13;;;;;;;4.60;3.72;;;743.00;1536.00;;;;;;5070677;28;20124;-65
2022/06/09 10:38:04;;;;;;;4.70;2.60;;;743.00;1536.00;;;;;;5070772;28;20017;-57
2022/06/09 10:40:41;;;;;;;4.80;3.30;;;743.10;1510.40;;;;;;5070547;28;20029;-60
2022/06/09 10:43:24;;;;;;;4.35;3.00;;;743.00;1536.00;;;;;;5070464;28;20041;-55
2022/06/09 10:45:55;;;;;;;4.43;3.05;;;717.70;1587.20;;;;;;5070548;28;20016;-53
2022/06/09 10:57:34;;;;;;;6.07;3.30;;;717.10;1664.00;;;;;;5070149;28;20039;-60
2022/06/09 11:00:09;;;;;;;4.95;3.28;;;691.90;1689.60;;;;;;5070238;28;20487;-65
2022/06/09 11:02:35;;;;;;;4.93;3.90;;;716.90;1689.60;;;;;;5070253;28;20040;-63
2022/06/09 11:05:03;;;;;;;5.25;2.85;;;692.10;1689.60;;;;;;5070133;28;20024;-63
2022/06/09 11:07:45;;;;;;;6.05;3.47;;;717.00;1689.60;;;;;;5070404;28;20078;-58
2022/06/09 11:10:19;;;;;;;4.63;3.58;;;691.90;1689.60;;;;;;5069973;28;20021;-58
2022/06/09 11:13:06;;;;;;;4.43;3.03;;;691.80;1689.60;;;;;;5070159;28;20445;-59
2022/06/09 11:15:56;;;;;;;3.42;2.65;;;692.10;1715.20;;;;;;5070054;28;20459;-54
2022/06/09 11:18:50;;;;;;;4.05;3.00;;;691.50;1715.20;;;;;;5069797;28;20125;-66
2022/06/09 11:21:31;;;;;;;4.15;3.10;;;716.80;1740.80;;;;;;5069980;28;20043;-55
2022/06/09 11:24:17;;;;;;;4.47;2.80;;;691.90;1715.20;;;;;;5070227;28;20078;-63
2022/06/09 11:26:50;;;;;;;7.82;3.92;;;691.40;1715.20;;;;;;5052434;28;20051;-61
2022/06/09 11:29:19;;;;;;;;;;;691.30;1715.20;;;;;;5070294;28;20501;-56
2022/06/09 11:31:52;;;;;;;3.55;2.65;;;691.70;1689.60;;;;;;5073535;28;19904;-67
2022/06/09 11:34:32;;;;;;;6.28;2.95;;;691.90;1664.00;;;;;;5073795;28;20111;-55
2022/06/09 11:37:16;;;;;;;4.05;2.72;;;717.10;1689.60;;;;;;5074159;28;20021;-64
2022/06/09 11:39:56;;;;;;;6.72;2.83;;;717.20;1612.80;;;;;;5073920;28;20028;-59
2022/06/09 11:42:42;;;;;;;4.00;2.60;;;691.80;1638.40;;;;;;5073881;28;20075;-62
2022/06/09 11:45:16;;;;;;;4.30;2.78;;;691.70;1638.40;;;;;;5074180;28;20434;-66
2022/06/09 11:47:42;;;;;;;4.55;2.63;;;691.30;1689.60;;;;;;5073790;28;20021;-57
2022/06/09 11:50:15;;;;;;;4.55;2.53;;;691.30;1715.20;;;;;;5073708;28;20441;-62
2022/06/09 11:52:45;;;;;;;5.00;3.33;;;691.40;1689.60;;;;;;5073951;28;20098;-61
2022/06/09 11:58:34;;;;;;;4.15;3.47;;;691.40;1740.80;;;;;;5073494;28;20189;-66
2022/06/09 12:01:16;;;;;;;3.60;2.90;;;666.40;1740.80;;;;;;5073498;28;20077;-54
2022/06/09 12:04:06;;;;;;;4.00;2.72;;;666.30;1766.40;;;;;;5073504;28;20029;-66
2022/06/09 12:06:47;;;;;;;4.07;2.97;;;666.50;1740.80;;;;;;5073315;28;20071;-66
2022/06/09 12:09:41;;;;;;;10.23;2.95;;;691.30;1740.80;;;;;;5073456;28;20425;-55
2022/06/09 12:12:29;;;;;;;5.00;2.85;;;691.30;1715.20;;;;;;5073572;28;20074;-55
2022/06/09 12:15:34;;;;;;;5.03;2.83;;;691.40;1715.20;;;;;;5073445;28;20025;-66
2022/06/09 12:18:12;;;;;;;3.75;3.10;;;691.50;1740.80;;;;;;5023544;28;20028;-62
2022/06/09 12:20:47;;;;;;;6.30;3.45;;;666.50;1740.80;;;;;;5072741;28;20043;-54
2022/06/09 12:23:22;;;;;;;4.45;3.20;;;666.50;1766.40;;;;;;5073180;28;20071;-55
2022/06/09 12:26:10;;;;;;;6.05;3.22;;;691.30;1766.40;;;;;;5072949;28;20051;-56
2022/06/09 12:28:49;;;;;;;5.13;2.92;;;691.60;1740.80;;;;;;5072929;28;20029;-57
2022/06/09 12:31:22;;;;;;;5.22;3.17;;;692.10;1740.80;;;;;;5073140;28;20052;-53
2022/06/09 12:34:13;;;;;;;5.30;2.90;;;691.80;1715.20;;;;;;5072664;28;20032;-53
2022/06/09 12:36:54;;;;;;;9.32;3.25;;;691.90;1766.40;;;;;;5072570;28;20048;-61
2022/06/09 12:39:22;;;;;;;5.60;2.85;;;692.10;1715.20;;;;;;5071328;28;20040;-56
2022/06/09 12:42:23;;;;;;;5.72;3.70;;;691.80;1715.20;;;;;;5071115;28;20143;-55
2022/06/09 12:45:01;;;;;;;5.03;3.83;;;691.60;1740.80;;;;;;5070780;28;20020;-58
2022/06/09 12:47:26;;;;;;;4.57;3.30;;;691.70;1740.80;;;;;;5071050;28;20075;-68
2022/06/09 12:49:55;;;;;;;6.55;2.97;;;692.10;1740.80;;;;;;5070918;28;20487;-59
2022/06/09 12:52:34;;;;;;;4.38;3.67;;;691.90;1740.80;;;;;;5070446;28;20039;-53
2022/06/09 12:55:05;;;;;;;4.63;3.10;;;691.90;1740.80;;;;;;5070902;28;20093;-56
2022/06/09 12:57:35;;;;;;;5.68;3.17;;;691.80;1740.80;;;;;;5070476;28;20548;-53
2022/06/09 13:00:14;;;;;;;5.72;3.40;;;691.90;1766.40;;;;;;5070717;28;20053;-59
2022/06/09 13:02:40;;;;;;;7.50;3.25;;;691.90;1766.40;;;;;;5070547;28;20044;-56
2022/06/09 13:05:12;;;;;;;5.07;3.53;;;692.00;1792.00;;;;;;5070823;28;20364;-54
2022/06/09 13:07:47;;;;;;;5.22;3.67;;;691.70;1792.00;;;;;;5070330;28;20033;-57